createdAt,value
2023-02-09T00:00:15.540Z,56.70
2023-02-09T00:02:44.582Z,56.69
2023-02-09T00:05:13.208Z,56.43
2023-02-09T00:07:40.920Z,56.64
2023-02-09T00:10:08.693Z,56.73
2023-02-09T00:12:55.016Z,56.70
2023-02-09T00:15:22.633Z,56.80
2023-02-09T00:17:51.629Z,56.73
2023-02-09T00:20:19.782Z,56.97
2023-02-09T00:22:47.403Z,56.79
2023-02-09T00:25:15.074Z,56.70
2023-02-09T00:27:42.695Z,56.87
2023-02-09T00:30:11.385Z,57.05
2023-02-09T00:32:39.024Z,56.74
2023-02-09T00:35:08.533Z,57.05
2023-02-09T00:37:37.408Z,56.71
2023-02-09T00:40:06.616Z,56.77
2023-02-09T00:42:34.327Z,56.98
2023-02-09T00:45:01.953Z,56.96
2023-02-09T00:47:29.605Z,57.00
2023-02-09T00:49:57.274Z,56.79
2023-02-09T00:52:26.243Z,56.81
2023-02-09T00:54:53.867Z,56.75
2023-02-09T00:57:21.509Z,56.61
2023-02-09T00:59:49.115Z,56.68
2023-02-09T01:02:16.843Z,57.06
2023-02-09T01:04:44.618Z,56.94
2023-02-09T01:07:12.308Z,57.03
2023-02-09T01:09:41.277Z,57.08
2023-02-09T01:12:08.954Z,56.71
2023-02-09T01:14:38.313Z,56.95
2023-02-09T01:17:06.197Z,56.87
2023-02-09T01:19:34.326Z,57.07
2023-02-09T01:22:02.252Z,56.80
2023-02-09T01:24:29.862Z,56.95
2023-02-09T01:26:58.891Z,57.06
2023-02-09T01:29:26.536Z,56.90
2023-02-09T01:31:54.352Z,57.04
2023-02-09T01:34:22.159Z,56.83
2023-02-09T01:36:50.116Z,56.88
2023-02-09T01:39:17.777Z,56.72
2023-02-09T01:41:45.717Z,57.03
2023-02-09T01:44:49.195Z,56.87
2023-02-09T01:47:20.367Z,56.73
2023-02-09T01:49:50.762Z,56.85
2023-02-09T01:52:22.148Z,56.95
2023-02-09T01:54:53.902Z,56.97
2023-02-09T01:57:30.460Z,57.05
2023-02-09T02:00:02.259Z,57.00
2023-02-09T02:02:31.620Z,56.78
2023-02-09T02:04:59.855Z,57.09
2023-02-09T02:07:33.278Z,56.93
2023-02-09T02:10:02.163Z,57.17
2023-02-09T02:12:30.382Z,57.11
2023-02-09T02:14:58.029Z,57.18
2023-02-09T02:17:39.921Z,57.12
2023-02-09T02:20:45.822Z,57.08
2023-02-09T02:23:28.228Z,56.88
2023-02-09T02:26:25.598Z,57.14
2023-02-09T02:29:23.950Z,56.91
2023-02-09T02:32:06.940Z,57.02
2023-02-09T02:34:43.954Z,57.34
2023-02-09T02:37:22.264Z,56.98
2023-02-09T02:39:57.355Z,57.14
2023-02-09T02:42:50.215Z,57.15
2023-02-09T02:45:26.117Z,57.18
2023-02-09T02:48:01.612Z,57.18
2023-02-09T02:50:32.093Z,57.06
2023-02-09T02:53:05.234Z,57.01
2023-02-09T02:55:34.866Z,57.00
2023-02-09T02:58:07.434Z,56.98
2023-02-09T03:00:42.097Z,56.87
2023-02-09T03:03:14.834Z,56.89
2023-02-09T03:05:44.171Z,57.13
2023-02-09T03:08:11.909Z,57.15
2023-02-09T03:10:42.288Z,57.02
2023-02-09T03:13:19.611Z,57.01
2023-02-09T03:16:04.213Z,57.23
2023-02-09T03:18:41.645Z,57.13
2023-02-09T03:21:15.097Z,56.77
2023-02-09T03:23:48.345Z,57.13
2023-02-09T03:26:21.304Z,57.01
2023-02-09T03:28:52.041Z,57.29
2023-02-09T03:31:20.317Z,57.19
2023-02-09T03:33:50.858Z,57.22
2023-02-09T03:36:20.871Z,57.16
2023-02-09T03:38:48.717Z,57.13
2023-02-09T03:41:16.361Z,57.10
2023-02-09T03:44:01.579Z,57.02
2023-02-09T03:46:29.857Z,57.23
2023-02-09T03:48:58.859Z,57.10
2023-02-09T03:51:26.509Z,57.09
2023-02-09T03:53:54.137Z,57.10
2023-02-09T03:56:24.985Z,56.91
2023-02-09T03:58:52.838Z,57.12
2023-02-09T04:01:20.534Z,57.30
2023-02-09T04:03:48.252Z,57.03
2023-02-09T04:06:17.254Z,57.08
2023-02-09T04:08:44.858Z,57.12
2023-02-09T04:11:12.496Z,57.24
2023-02-09T04:13:40.099Z,57.13
2023-02-09T04:16:08.159Z,56.93
2023-02-09T04:18:35.789Z,57.28
2023-02-09T04:21:03.432Z,57.07
2023-02-09T04:23:32.460Z,57.08
2023-02-09T04:26:00.136Z,57.10
2023-02-09T04:28:27.974Z,57.15
2023-02-09T04:30:56.984Z,57.15
2023-02-09T04:33:25.926Z,57.05
2023-02-09T04:35:54.117Z,57.16
2023-02-09T04:38:22.676Z,57.18
2023-02-09T04:40:54.348Z,57.10
2023-02-09T04:43:22.117Z,57.30
2023-02-09T04:45:50.135Z,57.39
2023-02-09T04:48:19.998Z,57.22
2023-02-09T04:50:48.290Z,57.10
2023-02-09T04:53:16.164Z,57.09
2023-02-09T04:55:45.460Z,57.11
2023-02-09T04:58:34.194Z,57.19
2023-02-09T05:01:02.585Z,56.92
2023-02-09T05:03:30.761Z,57.14
2023-02-09T05:06:00.379Z,57.17
2023-02-09T05:08:28.052Z,57.10
2023-02-09T05:10:56.228Z,56.91
2023-02-09T05:13:26.211Z,57.08
2023-02-09T05:15:54.504Z,56.87
2023-02-09T05:18:22.577Z,57.05
2023-02-09T05:20:50.523Z,57.15
2023-02-09T05:23:18.423Z,56.93
2023-02-09T05:25:47.865Z,56.92
2023-02-09T05:28:16.257Z,56.70
2023-02-09T05:30:45.756Z,57.17
2023-02-09T05:33:13.548Z,56.91
2023-02-09T05:35:41.183Z,57.17
2023-02-09T05:38:08.845Z,57.12
2023-02-09T05:40:36.482Z,56.91
2023-02-09T05:43:04.142Z,57.05
2023-02-09T05:45:31.802Z,57.15
2023-02-09T05:48:00.811Z,57.30
2023-02-09T05:50:28.594Z,57.12
2023-02-09T05:52:56.481Z,57.17
2023-02-09T05:55:24.088Z,57.28
2023-02-09T05:57:51.785Z,56.93
2023-02-09T06:00:19.804Z,56.91
2023-02-09T06:02:47.528Z,57.00
2023-02-09T06:05:16.719Z,56.90
2023-02-09T06:07:44.343Z,56.93
2023-02-09T06:10:11.973Z,56.49
2023-02-09T06:12:41.301Z,56.77
2023-02-09T06:15:10.377Z,56.71
2023-02-09T06:17:38.408Z,56.91
2023-02-09T06:20:07.494Z,57.02
2023-02-09T06:22:36.477Z,57.13
2023-02-09T06:25:04.335Z,57.00
2023-02-09T06:27:31.954Z,57.00
2023-02-09T06:29:59.572Z,57.22
2023-02-09T06:32:27.418Z,57.18
2023-02-09T06:34:55.038Z,57.40
2023-02-09T06:37:22.788Z,57.29
2023-02-09T06:39:51.757Z,57.14
2023-02-09T06:42:19.378Z,57.10
2023-02-09T06:44:47.010Z,56.99
2023-02-09T06:47:14.656Z,57.45
2023-02-09T06:49:42.270Z,57.20
2023-02-09T06:52:09.886Z,57.23
2023-02-09T06:54:37.545Z,57.52
2023-02-09T06:57:06.623Z,57.44
2023-02-09T06:59:34.248Z,57.40
2023-02-09T07:02:01.964Z,57.31
2023-02-09T07:04:29.598Z,57.48
2023-02-09T07:06:57.206Z,57.34
2023-02-09T07:09:24.861Z,57.42
2023-02-09T07:11:52.537Z,57.43
2023-02-09T07:14:21.534Z,57.34
2023-02-09T07:16:49.194Z,57.41
2023-02-09T07:19:16.822Z,57.60
2023-02-09T07:21:44.436Z,57.40
2023-02-09T07:24:12.136Z,57.38
2023-02-09T07:26:39.749Z,57.47
2023-02-09T07:29:07.356Z,57.49
2023-02-09T07:31:36.502Z,57.49
2023-02-09T07:34:04.164Z,57.41
2023-02-09T07:36:31.773Z,57.45
2023-02-09T07:38:59.855Z,57.49
2023-02-09T07:41:28.592Z,57.52
2023-02-09T07:43:57.180Z,57.57
2023-02-09T07:46:25.664Z,57.59
2023-02-09T07:48:54.691Z,57.49
2023-02-09T07:51:25.295Z,57.47
2023-02-09T07:53:53.519Z,57.63
2023-02-09T07:56:21.154Z,57.45
2023-02-09T07:58:48.973Z,57.48
2023-02-09T08:01:17.154Z,57.51
2023-02-09T08:03:46.732Z,57.42
2023-02-09T08:06:25.990Z,57.50
2023-02-09T08:08:58.303Z,57.61
2023-02-09T08:11:30.185Z,57.51
2023-02-09T08:14:00.536Z,57.47
2023-02-09T08:16:32.066Z,57.70
2023-02-09T08:19:03.189Z,57.49
2023-02-09T08:21:37.534Z,57.49
2023-02-09T08:24:07.525Z,57.61
2023-02-09T08:26:36.396Z,57.57
2023-02-09T08:29:04.234Z,57.64
2023-02-09T08:31:32.082Z,57.66
2023-02-09T08:33:59.774Z,57.55
2023-02-09T08:36:27.707Z,57.58
2023-02-09T08:38:56.665Z,57.53
2023-02-09T08:41:24.352Z,57.68
2023-02-09T08:43:53.050Z,57.87
2023-02-09T08:46:20.911Z,57.83
2023-02-09T08:48:48.610Z,57.67
2023-02-09T08:51:17.674Z,57.48
2023-02-09T08:53:52.157Z,57.56
2023-02-09T08:56:23.123Z,57.69
2023-02-09T08:58:51.197Z,57.02
2023-02-09T09:01:19.127Z,57.48
2023-02-09T09:03:47.097Z,58.05
2023-02-09T09:06:14.790Z,57.56
2023-02-09T09:08:42.482Z,57.58
2023-02-09T09:11:13.118Z,57.86
2023-02-09T09:13:42.929Z,57.46
2023-02-09T09:16:16.141Z,57.83
2023-02-09T09:18:45.239Z,57.73
2023-02-09T09:21:13.387Z,57.58
2023-02-09T09:23:41.247Z,57.75
2023-02-09T09:26:09.126Z,57.60
2023-02-09T09:28:37.021Z,57.68
2023-02-09T09:31:10.156Z,57.55
2023-02-09T09:33:38.436Z,57.74
2023-02-09T09:36:07.870Z,57.61
2023-02-09T09:38:36.235Z,57.47
2023-02-09T09:41:04.821Z,57.69
2023-02-09T09:43:35.784Z,57.57
2023-02-09T09:46:05.037Z,58.01
2023-02-09T09:48:43.170Z,57.53
2023-02-09T09:51:13.234Z,57.72
2023-02-09T09:53:44.524Z,57.82
2023-02-09T09:56:14.304Z,57.78
2023-02-09T09:58:45.101Z,57.78
2023-02-09T10:01:14.581Z,57.80
2023-02-09T10:03:43.664Z,57.74
2023-02-09T10:06:16.757Z,57.68
2023-02-09T10:08:48.462Z,57.76
2023-02-09T10:11:17.434Z,57.83
2023-02-09T10:13:49.882Z,57.75
2023-02-09T10:16:19.627Z,57.72
2023-02-09T10:18:52.375Z,58.04
2023-02-09T10:21:20.685Z,58.00
2023-02-09T10:23:50.183Z,57.80
2023-02-09T10:26:24.500Z,57.82
2023-02-09T10:28:54.618Z,57.83
2023-02-09T10:31:26.955Z,57.80
2023-02-09T10:34:03.262Z,57.96
2023-02-09T10:36:34.050Z,57.82
2023-02-09T10:39:17.951Z,57.70
2023-02-09T10:41:48.034Z,57.77
2023-02-09T10:44:20.834Z,57.68
2023-02-09T10:46:49.034Z,57.92
2023-02-09T10:49:36.086Z,57.77
2023-02-09T10:52:11.999Z,57.49
2023-02-09T10:54:42.129Z,57.87
2023-02-09T10:57:22.264Z,57.84
2023-02-09T10:59:53.424Z,57.64
2023-02-09T11:02:36.142Z,57.77
2023-02-09T11:05:25.899Z,57.61
2023-02-09T11:07:57.605Z,57.83
2023-02-09T11:10:27.134Z,58.02
2023-02-09T11:12:54.745Z,57.84
2023-02-09T11:15:27.140Z,57.71
2023-02-09T11:17:59.722Z,57.53
2023-02-09T11:20:33.650Z,57.95
2023-02-09T11:23:19.599Z,57.64
2023-02-09T11:25:55.943Z,57.67
2023-02-09T11:28:33.510Z,57.77
2023-02-09T11:31:21.032Z,57.77
2023-02-09T11:34:00.625Z,57.94
2023-02-09T11:36:45.480Z,57.69
2023-02-09T11:39:18.403Z,57.83
2023-02-09T11:42:11.233Z,57.74
2023-02-09T11:44:44.264Z,57.79
2023-02-09T11:47:18.910Z,57.75
2023-02-09T11:49:49.516Z,57.61
2023-02-09T11:52:25.895Z,57.69
2023-02-09T11:54:58.769Z,57.96
2023-02-09T11:57:35.348Z,57.59
2023-02-09T12:00:06.033Z,57.81
2023-02-09T12:02:47.417Z,57.91
2023-02-09T12:05:18.978Z,57.86
2023-02-09T12:08:04.905Z,57.83
2023-02-09T12:10:38.502Z,57.68
2023-02-09T12:13:20.099Z,57.78
2023-02-09T12:15:51.669Z,57.74
2023-02-09T12:18:22.664Z,57.79
2023-02-09T12:20:53.097Z,57.85
2023-02-09T12:23:28.251Z,57.64
2023-02-09T12:25:59.831Z,57.87
2023-02-09T12:28:44.938Z,57.73
2023-02-09T12:31:16.818Z,57.71
2023-02-09T12:34:14.477Z,57.89
2023-02-09T12:37:01.766Z,57.79
2023-02-09T12:39:34.788Z,57.89
2023-02-09T12:42:28.912Z,57.84
2023-02-09T12:45:00.599Z,58.07
2023-02-09T12:47:56.695Z,58.02
2023-02-09T12:50:32.639Z,58.04
2023-02-09T12:53:33.306Z,58.00
2023-02-09T12:56:05.591Z,57.87
2023-02-09T12:58:38.909Z,58.06
2023-02-09T13:01:06.760Z,57.97
2023-02-09T13:03:45.047Z,57.62
2023-02-09T13:06:27.299Z,58.02
2023-02-09T13:08:58.379Z,57.99
2023-02-09T13:11:33.649Z,57.68
2023-02-09T13:14:05.935Z,58.03
2023-02-09T13:17:14.282Z,58.05
2023-02-09T13:20:08.346Z,58.05
2023-02-09T13:22:58.417Z,57.98
2023-02-09T13:25:30.825Z,57.76
2023-02-09T13:28:11.026Z,57.97
2023-02-09T13:30:38.886Z,57.59
2023-02-09T13:33:22.387Z,57.98
2023-02-09T13:36:08.899Z,57.78
2023-02-09T13:38:41.988Z,57.84
2023-02-09T13:41:25.538Z,57.72
2023-02-09T13:43:54.637Z,57.94
2023-02-09T13:46:27.241Z,58.09
2023-02-09T13:48:56.420Z,58.02
2023-02-09T13:51:24.639Z,58.17
2023-02-09T13:53:59.785Z,58.22
2023-02-09T13:56:28.231Z,57.74
2023-02-09T13:58:57.910Z,57.89
2023-02-09T14:01:29.653Z,58.02
2023-02-09T14:04:01.474Z,57.98
2023-02-09T14:06:36.671Z,58.02
2023-02-09T14:09:10.871Z,58.17
2023-02-09T14:11:43.117Z,57.86
2023-02-09T14:14:17.204Z,57.87
2023-02-09T14:16:53.338Z,58.06
2023-02-09T14:19:27.263Z,57.91
2023-02-09T14:21:55.013Z,58.06
2023-02-09T14:24:24.505Z,58.13
2023-02-09T14:26:59.328Z,57.75
2023-02-09T14:29:30.333Z,57.90
2023-02-09T14:32:00.162Z,58.19
2023-02-09T14:34:33.953Z,57.95
2023-02-09T14:37:03.786Z,58.04
2023-02-09T14:39:32.139Z,58.07
2023-02-09T14:42:03.089Z,58.06
2023-02-09T14:44:32.201Z,58.11
2023-02-09T14:47:01.486Z,58.15
2023-02-09T14:49:30.346Z,58.19
2023-02-09T14:52:04.119Z,58.04
2023-02-09T14:54:33.925Z,58.08
2023-02-09T14:57:03.801Z,58.03
2023-02-09T14:59:32.841Z,58.28
2023-02-09T15:02:00.619Z,57.79
2023-02-09T15:04:28.272Z,58.07
2023-02-09T15:07:02.384Z,58.07
2023-02-09T15:09:36.148Z,58.17
2023-02-09T15:12:07.386Z,57.82
2023-02-09T15:14:41.913Z,58.07
2023-02-09T15:17:15.610Z,57.99
2023-02-09T15:19:43.891Z,58.00
2023-02-09T15:22:15.079Z,58.02
2023-02-09T15:24:44.069Z,57.99
2023-02-09T15:27:16.547Z,58.02
2023-02-09T15:29:45.544Z,57.71
2023-02-09T15:32:15.867Z,57.97
2023-02-09T15:34:44.090Z,57.83
2023-02-09T15:37:19.553Z,58.10
2023-02-09T15:39:47.559Z,57.92
2023-02-09T15:42:34.086Z,57.95
2023-02-09T15:45:34.641Z,57.96
2023-02-09T15:48:02.435Z,58.09
2023-02-09T15:50:31.453Z,58.18
2023-02-09T15:52:59.792Z,57.95
2023-02-09T15:55:28.257Z,58.12
2023-02-09T15:57:57.033Z,58.05
2023-02-09T16:00:28.679Z,58.02
2023-02-09T16:02:58.146Z,58.07
2023-02-09T16:05:28.271Z,58.28
2023-02-09T16:07:57.136Z,58.30
2023-02-09T16:10:26.696Z,58.16
2023-02-09T16:12:55.002Z,58.28
2023-02-09T16:15:24.665Z,58.11
2023-02-09T16:17:53.693Z,57.82
2023-02-09T16:20:22.549Z,57.81
2023-02-09T16:22:53.742Z,58.08
2023-02-09T16:25:24.196Z,58.03
2023-02-09T16:27:53.227Z,58.17
2023-02-09T16:30:23.829Z,58.99
2023-02-09T16:32:53.493Z,59.50
2023-02-09T16:35:22.937Z,58.99
2023-02-09T16:37:52.288Z,59.09
2023-02-09T16:40:29.034Z,58.85
2023-02-09T16:42:58.250Z,58.96
2023-02-09T16:45:27.118Z,58.68
2023-02-09T16:47:59.626Z,58.55
2023-02-09T16:50:32.978Z,58.66
2023-02-09T16:53:03.582Z,58.67
2023-02-09T16:55:32.985Z,58.42
2023-02-09T16:58:02.750Z,58.08
2023-02-09T17:00:33.556Z,58.50
2023-02-09T17:03:09.460Z,58.40
2023-02-09T17:05:38.166Z,58.27
2023-02-09T17:08:10.361Z,58.34
2023-02-09T17:10:38.001Z,58.43
2023-02-09T17:13:05.654Z,58.64
2023-02-09T17:15:39.346Z,58.45
2023-02-09T17:18:13.461Z,58.59
2023-02-09T17:20:44.199Z,58.45
2023-02-09T17:23:16.067Z,58.52
2023-02-09T17:25:44.817Z,58.31
2023-02-09T17:28:12.786Z,58.34
2023-02-09T17:30:41.420Z,58.38
2023-02-09T17:33:18.298Z,58.16
2023-02-09T17:36:13.989Z,58.31
2023-02-09T17:38:36.080Z,58.35
2023-02-09T17:41:07.511Z,58.00
2023-02-09T17:43:35.272Z,58.04
2023-02-09T17:46:05.202Z,57.95
2023-02-09T17:48:34.499Z,58.01
2023-02-09T17:51:02.959Z,57.91
2023-02-09T17:53:34.786Z,57.63
2023-02-09T17:56:02.760Z,57.97
2023-02-09T17:58:30.851Z,57.01
2023-02-09T18:00:58.571Z,56.02
2023-02-09T18:03:26.639Z,55.63
2023-02-09T18:05:58.516Z,54.55
2023-02-09T18:08:27.265Z,53.59
2023-02-09T18:10:58.485Z,51.37
2023-02-09T18:13:27.080Z,50.43
2023-02-09T18:15:55.199Z,50.74
2023-02-09T18:18:24.386Z,50.97
2023-02-09T18:20:52.507Z,51.03
2023-02-09T18:23:23.024Z,50.38
2023-02-09T18:25:50.949Z,48.34
2023-02-09T18:28:18.636Z,46.13
2023-02-09T18:30:46.605Z,46.56
2023-02-09T18:33:16.363Z,47.11
2023-02-09T18:35:45.724Z,47.76
2023-02-09T18:38:15.739Z,47.88
2023-02-09T18:40:45.087Z,48.21
2023-02-09T18:43:15.178Z,48.44
2023-02-09T18:45:42.846Z,48.61
2023-02-09T18:48:11.516Z,48.71
2023-02-09T18:50:40.205Z,48.72
2023-02-09T18:53:08.332Z,49.00
2023-02-09T18:55:36.358Z,48.77
2023-02-09T18:58:09.357Z,48.64
2023-02-09T19:00:37.175Z,48.52
2023-02-09T19:03:05.323Z,48.52
2023-02-09T19:05:34.695Z,48.18
2023-02-09T19:08:02.673Z,48.34
2023-02-09T19:10:32.967Z,48.80
2023-02-09T19:13:01.930Z,49.26
2023-02-09T19:15:31.857Z,49.75
2023-02-09T19:17:59.562Z,50.02
2023-02-09T19:20:31.896Z,50.11
2023-02-09T19:22:59.594Z,50.68
2023-02-09T19:25:28.800Z,50.88
2023-02-09T19:27:57.174Z,51.08
2023-02-09T19:30:26.470Z,51.12
2023-02-09T19:32:57.619Z,51.42
2023-02-09T19:35:25.707Z,51.73
2023-02-09T19:37:54.344Z,51.78
2023-02-09T19:40:28.490Z,51.91
2023-02-09T19:42:56.157Z,53.25
2023-02-09T19:45:23.912Z,53.67
2023-02-09T19:47:51.600Z,53.83
2023-02-09T19:50:20.805Z,54.20
2023-02-09T19:52:50.258Z,54.40
2023-02-09T19:55:18.062Z,54.55
2023-02-09T19:57:45.669Z,54.89
2023-02-09T20:00:18.134Z,54.78
2023-02-09T20:02:45.859Z,55.01
2023-02-09T20:05:13.972Z,55.33
2023-02-09T20:07:43.074Z,55.30
2023-02-09T20:10:11.255Z,55.56
2023-02-09T20:12:38.895Z,55.41
2023-02-09T20:15:06.831Z,55.55
2023-02-09T20:17:34.768Z,55.39
2023-02-09T20:20:02.393Z,55.47
2023-02-09T20:22:30.018Z,55.42
2023-02-09T20:24:59.064Z,55.64
2023-02-09T20:27:27.712Z,55.78
2023-02-09T20:30:01.139Z,55.51
2023-02-09T20:32:28.906Z,55.77
2023-02-09T20:34:56.912Z,55.73
2023-02-09T20:37:24.600Z,55.75
2023-02-09T20:39:52.267Z,55.75
2023-02-09T20:42:38.880Z,55.75
2023-02-09T20:45:25.339Z,55.84
2023-02-09T20:47:52.995Z,55.81
2023-02-09T20:50:20.658Z,55.79
2023-02-09T20:52:48.273Z,55.85
2023-02-09T20:55:16.087Z,55.88
2023-02-09T20:57:45.062Z,55.69
2023-02-09T21:00:13.577Z,55.91
2023-02-09T21:02:41.274Z,56.06
2023-02-09T21:05:09.360Z,55.96
2023-02-09T21:07:37.188Z,56.05
2023-02-09T21:10:04.910Z,55.88
2023-02-09T21:12:32.542Z,56.21
2023-02-09T21:15:01.751Z,55.93
2023-02-09T21:17:29.396Z,56.12
2023-02-09T21:19:57.012Z,56.44
2023-02-09T21:22:24.650Z,56.12
2023-02-09T21:24:52.265Z,56.19
2023-02-09T21:27:20.477Z,56.30
2023-02-09T21:29:48.268Z,56.31
2023-02-09T21:32:18.102Z,56.30
2023-02-09T21:34:45.784Z,56.55
2023-02-09T21:37:14.087Z,56.32
2023-02-09T21:39:42.037Z,56.53
2023-02-09T21:42:28.732Z,56.63
2023-02-09T21:44:56.735Z,56.12
2023-02-09T21:47:27.591Z,56.32
2023-02-09T21:49:55.677Z,56.41
2023-02-09T21:52:23.420Z,56.41
2023-02-09T21:54:51.349Z,56.71
2023-02-09T21:57:19.251Z,56.61
2023-02-09T21:59:46.959Z,56.59
2023-02-09T22:02:15.988Z,56.47
2023-02-09T22:04:45.616Z,56.66
2023-02-09T22:07:14.616Z,56.34
2023-02-09T22:09:42.596Z,56.58
2023-02-09T22:12:10.514Z,56.53
2023-02-09T22:14:38.352Z,56.61
2023-02-09T22:17:06.042Z,56.57
2023-02-09T22:19:33.673Z,56.60
2023-02-09T22:22:02.706Z,56.65
2023-02-09T22:24:34.657Z,56.59
2023-02-09T22:27:02.534Z,56.65
2023-02-09T22:29:30.535Z,56.94
2023-02-09T22:31:58.386Z,56.67
2023-02-09T22:34:26.172Z,56.86
2023-02-09T22:36:54.070Z,56.80
2023-02-09T22:39:23.263Z,56.86
2023-02-09T22:41:50.884Z,56.60
2023-02-09T22:44:19.040Z,56.87
2023-02-09T22:46:47.271Z,57.01
2023-02-09T22:49:18.118Z,56.95
2023-02-09T22:51:46.756Z,57.08
2023-02-09T22:54:15.643Z,56.57
2023-02-09T22:56:45.135Z,57.00
2023-02-09T22:59:14.461Z,56.62
2023-02-09T23:01:42.210Z,57.19
2023-02-09T23:04:10.029Z,57.18
2023-02-09T23:06:37.780Z,57.35
2023-02-09T23:09:08.385Z,57.23
2023-02-09T23:11:36.803Z,57.32
2023-02-09T23:14:09.965Z,57.10
2023-02-09T23:16:39.411Z,57.32
2023-02-09T23:19:08.387Z,57.40
2023-02-09T23:21:38.713Z,57.31
2023-02-09T23:24:07.003Z,57.40
2023-02-09T23:26:35.167Z,57.40
2023-02-09T23:29:06.562Z,57.35
2023-02-09T23:31:34.555Z,57.59
2023-02-09T23:34:02.224Z,57.50
2023-02-09T23:36:31.944Z,57.49
2023-02-09T23:39:01.122Z,57.45
2023-02-09T23:41:28.966Z,57.66
2023-02-09T23:43:57.264Z,57.71
2023-02-09T23:46:28.669Z,57.55
2023-02-09T23:48:57.613Z,57.74
2023-02-09T23:51:28.438Z,57.60
2023-02-09T23:53:57.901Z,57.89
2023-02-09T23:56:26.365Z,57.95
2023-02-09T23:58:54.776Z,57.70
